Time;durP1;ratioP1;P1;durP2;ratioP2;P2;SDS_P1;SDS_P2;PMS_P1;PMS_P2;Temp;Humidity;BMP_temperature;BMP_pressure;BME280_temperature;BME280_humidity;BME280_pressure;Samples;Min_cycle;Max_cycle;Signal;HPM_P1;HPM_P2
2022/03/12 00:02:12;;;;;;;;;;;7.20;55.80;;;;;;4940440;28;20334;-73
2022/03/12 00:04:38;;;;;;;;;;;7.10;56.40;;;;;;4939478;28;20594;-73
2022/03/12 00:07:11;;;;;;;;;;;7.00;56.70;;;;;;4934466;28;19933;-74
2022/03/12 00:09:37;;;;;;;;;;;7.00;57.10;;;;;;4946818;28;19975;-74
2022/03/12 00:12:03;;;;;;;;;;;7.00;57.30;;;;;;4947270;28;20227;-73
2022/03/12 00:14:32;;;;;;;;;;;7.00;57.20;;;;;;4936124;28;20487;-73
2022/03/12 00:16:57;;;;;;;;;;;7.00;57.30;;;;;;4958241;28;20123;-73
2022/03/12 00:19:23;;;;;;;;;;;7.00;57.10;;;;;;4941834;28;20538;-73
2022/03/12 00:21:49;;;;;;;;;;;6.80;57.70;;;;;;4943551;28;20378;-73
2022/03/12 00:24:17;;;;;;;;;;;6.90;57.30;;;;;;4955954;28;19975;-73
2022/03/12 00:26:43;;;;;;;;;;;6.90;57.40;;;;;;4938690;28;19932;-73
2022/03/12 00:29:14;;;;;;;;;;;6.80;58.40;;;;;;4954595;28;19936;-73
2022/03/12 00:31:41;;;;;;;;;;;7.00;56.90;;;;;;4942676;28;19929;-74
2022/03/12 00:34:07;;;;;;;;;;;7.10;56.20;;;;;;4961001;28;19940;-73
2022/03/12 00:36:32;;;;;;;;;;;6.90;58.20;;;;;;4942319;28;20878;-73
2022/03/12 00:38:59;;;;;;;;;;;6.90;58.20;;;;;;4958484;28;20542;-73
2022/03/12 00:41:25;;;;;;;;;;;7.00;57.10;;;;;;4962761;28;19926;-74
2022/03/12 00:43:52;;;;;;;;;;;6.90;58.40;;;;;;4909243;28;19936;-73
2022/03/12 00:46:18;;;;;;;;;;;6.90;58.20;;;;;;4942976;28;20626;-74
2022/03/12 00:48:44;;;;;;;;;;;6.90;58.40;;;;;;4943296;28;19929;-74
2022/03/12 00:51:10;;;;;;;;;;;6.80;58.40;;;;;;4961715;28;20802;-73
2022/03/12 00:53:36;;;;;;;;;;;6.90;58.20;;;;;;4963688;28;19986;-74
2022/03/12 00:56:02;;;;;;;;;;;6.80;59.10;;;;;;4961426;28;20506;-73
2022/03/12 00:58:29;;;;;;;;;;;6.80;59.00;;;;;;4923939;28;20561;-73
2022/03/12 01:00:54;;;;;;;;;;;6.80;59.10;;;;;;4956031;28;20160;-73
2022/03/12 01:03:20;;;;;;;;;;;6.80;59.70;;;;;;4958037;28;20374;-74
2022/03/12 01:05:49;;;;;;;;;;;6.90;58.40;;;;;;4937640;28;20669;-73
2022/03/12 01:08:15;;;;;;;;;;;6.90;58.30;;;;;;4937411;28;19929;-73
2022/03/12 01:10:41;;;;;;;;;;;6.80;59.10;;;;;;4963285;28;20581;-73
2022/03/12 01:13:07;;;;;;;;;;;7.10;56.50;;;;;;4942435;28;20492;-73
2022/03/12 01:15:34;;;;;;;;;;;6.90;58.00;;;;;;4944603;28;19982;-73
2022/03/12 01:18:00;;;;;;;;;;;6.80;58.40;;;;;;4946477;28;20631;-73
2022/03/12 01:20:26;;;;;;;;;;;6.80;59.10;;;;;;4958261;28;20474;-74
2022/03/12 01:22:52;;;;;;;;;;;7.00;56.90;;;;;;4937916;28;19925;-73
2022/03/12 01:25:17;;;;;;;;;;;6.90;58.60;;;;;;4939958;28;19933;-74
2022/03/12 01:27:43;;;;;;;;;;;6.90;57.90;;;;;;4920895;28;20463;-73
2022/03/12 01:30:09;;;;;;;;;;;6.90;58.30;;;;;;4941179;28;19929;-73
2022/03/12 01:32:35;;;;;;;;;;;6.90;58.60;;;;;;4955918;28;20023;-73
2022/03/12 01:35:02;;;;;;;;;;;6.80;58.70;;;;;;4957163;28;20032;-73
2022/03/12 01:37:28;;;;;;;;;;;7.00;57.90;;;;;;4955768;28;19929;-74
2022/03/12 01:39:54;;;;;;;;;;;6.90;58.00;;;;;;4938633;28;20396;-74
2022/03/12 01:42:27;;;;;;;;;;;7.00;57.70;;;;;;4937660;28;20861;-73
2022/03/12 01:44:53;;;;;;;;;;;7.00;57.80;;;;;;4941584;28;19939;-73
2022/03/12 01:47:20;;;;;;;;;;;6.90;58.10;;;;;;4954557;28;19932;-73
2022/03/12 01:49:47;;;;;;;;;;;6.90;58.40;;;;;;4955749;28;19944;-73
2022/03/12 01:52:13;;;;;;;;;;;6.90;58.30;;;;;;4937199;28;20070;-73
2022/03/12 01:54:40;;;;;;;;;;;6.80;58.50;;;;;;4959459;28;19940;-73
2022/03/12 01:57:06;;;;;;;;;;;6.90;57.40;;;;;;4922963;28;19941;-74
2022/03/12 01:59:33;;;;;;;;;;;6.90;58.10;;;;;;4940620;28;19968;-74
2022/03/12 02:01:58;;;;;;;;;;;6.90;57.40;;;;;;4956112;28;20389;-73
2022/03/12 02:04:25;;;;;;;;;;;6.80;58.90;;;;;;4954958;28;19936;-73
2022/03/12 02:06:52;;;;;;;;;;;6.80;59.10;;;;;;4941323;28;19929;-73
2022/03/12 02:09:18;;;;;;;;;;;6.80;59.90;;;;;;4940665;28;20329;-73
2022/03/12 02:11:50;;;;;;;;;;;6.80;58.00;;;;;;4922997;28;19932;-73
2022/03/12 02:14:17;;;;;;;;;;;6.80;58.50;;;;;;4954811;28;19932;-73
2022/03/12 02:16:44;;;;;;;;;;;6.80;58.00;;;;;;4955553;28;19933;-73
2022/03/12 02:19:10;;;;;;;;;;;6.70;58.90;;;;;;4955839;28;19964;-73
2022/03/12 02:21:40;;;;;;;;;;;6.70;58.90;;;;;;4941122;28;20300;-73
2022/03/12 02:24:09;;;;;;;;;;;6.70;59.10;;;;;;4954350;28;20029;-73
2022/03/12 02:26:36;;;;;;;;;;;6.70;59.10;;;;;;4936815;28;20069;-73
2022/03/12 02:29:02;;;;;;;;;;;6.70;59.20;;;;;;4940436;28;20464;-73
2022/03/12 02:31:29;;;;;;;;;;;6.80;58.40;;;;;;4938550;28;19928;-73
2022/03/12 02:34:01;;;;;;;;;;;6.70;59.10;;;;;;4957178;28;19959;-73
2022/03/12 02:36:27;;;;;;;;;;;6.70;59.10;;;;;;4936416;28;20301;-73
2022/03/12 02:38:54;;;;;;;;;;;6.70;58.90;;;;;;4937475;28;19932;-74
2022/03/12 02:41:22;;;;;;;;;;;6.60;59.40;;;;;;4938090;28;19928;-73
2022/03/12 02:43:47;;;;;;;;;;;6.70;58.00;;;;;;4951580;28;20403;-73
2022/03/12 02:46:14;;;;;;;;;;;6.70;58.50;;;;;;4926075;28;20294;-74
2022/03/12 02:48:39;;;;;;;;;;;6.80;58.50;;;;;;4936660;28;19928;-73
2022/03/12 02:51:06;;;;;;;;;;;6.70;58.80;;;;;;4936764;28;20301;-73
2022/03/12 02:53:32;;;;;;;;;;;6.70;58.90;;;;;;4940136;28;20023;-74
2022/03/12 02:55:58;;;;;;;;;;;6.70;58.60;;;;;;4958323;28;19951;-73
2022/03/12 02:58:23;;;;;;;;;;;6.70;59.20;;;;;;4954897;28;20360;-73
2022/03/12 03:00:49;;;;;;;;;;;6.60;59.50;;;;;;4933616;28;19936;-73
2022/03/12 03:03:15;;;;;;;;;;;6.60;59.90;;;;;;4934540;28;19924;-73
2022/03/12 03:05:46;;;;;;;;;;;6.60;59.10;;;;;;4932340;28;19968;-73
2022/03/12 03:08:20;;;;;;;;;;;6.60;59.40;;;;;;4955012;28;19940;-73
2022/03/12 03:10:47;;;;;;;;;;;6.60;58.80;;;;;;4955079;28;19928;-73
2022/03/12 03:13:16;;;;;;;;;;;6.60;59.00;;;;;;4932259;28;21102;-73
2022/03/12 03:15:49;;;;;;;;;;;6.70;58.50;;;;;;4938987;28;19929;-73
2022/03/12 03:18:20;;;;;;;;;;;6.60;59.40;;;;;;4934297;28;20345;-73
2022/03/12 03:20:46;;;;;;;;;;;6.60;59.50;;;;;;4936559;28;20474;-73
2022/03/12 03:23:12;;;;;;;;;;;6.60;59.00;;;;;;4920597;28;20500;-73
2022/03/12 03:25:38;;;;;;;;;;;6.50;60.00;;;;;;4939827;28;20909;-73
2022/03/12 03:28:05;;;;;;;;;;;6.50;59.00;;;;;;4953475;28;20062;-73
2022/03/12 03:30:34;;;;;;;;;;;6.50;58.80;;;;;;4950952;28;20897;-73
2022/03/12 03:33:00;;;;;;;;;;;6.50;58.70;;;;;;4954072;28;20360;-73
2022/03/12 03:35:26;;;;;;;;;;;6.50;59.00;;;;;;4958353;28;20023;-73
2022/03/12 03:37:51;;;;;;;;;;;6.50;59.00;;;;;;4957745;28;19936;-73
2022/03/12 03:40:17;;;;;;;;;;;6.40;59.50;;;;;;4933517;28;19933;-74
2022/03/12 03:42:43;;;;;;;;;;;6.40;58.90;;;;;;4952214;28;19929;-74
2022/03/12 03:45:08;;;;;;;;;;;6.40;58.50;;;;;;4922920;28;19971;-73
2022/03/12 03:47:34;;;;;;;;;;;6.40;59.40;;;;;;4956455;28;20330;-73
2022/03/12 03:50:00;;;;;;;;;;;6.40;59.40;;;;;;4935741;28;20681;-74
2022/03/12 03:52:26;;;;;;;;;;;6.40;58.40;;;;;;4938919;28;19932;-73
2022/03/12 03:54:51;;;;;;;;;;;6.40;58.90;;;;;;4956868;28;19936;-73
2022/03/12 03:57:18;;;;;;;;;;;6.40;58.70;;;;;;4950742;28;19955;-73
2022/03/12 03:59:44;;;;;;;;;;;6.40;58.10;;;;;;4959496;28;19970;-73
2022/03/12 04:02:09;;;;;;;;;;;6.50;58.30;;;;;;4964921;28;19928;-73
2022/03/12 04:04:36;;;;;;;;;;;6.60;58.50;;;;;;4942566;28;19935;-73
2022/03/12 04:07:04;;;;;;;;;;;6.50;57.90;;;;;;4958089;28;19964;-73
2022/03/12 04:09:30;;;;;;;;;;;6.40;59.00;;;;;;4962661;28;19928;-73
2022/03/12 04:11:56;;;;;;;;;;;6.40;59.10;;;;;;4937873;28;20381;-73
2022/03/12 04:14:22;;;;;;;;;;;6.30;59.40;;;;;;4941422;28;20454;-73
2022/03/12 04:16:47;;;;;;;;;;;6.30;60.30;;;;;;4942842;28;19978;-73
2022/03/12 04:19:14;;;;;;;;;;;6.30;59.80;;;;;;4940505;28;19929;-73
2022/03/12 04:21:40;;;;;;;;;;;6.10;60.90;;;;;;4945921;28;19974;-73
2022/03/12 04:24:06;;;;;;;;;;;6.20;61.20;;;;;;4966756;28;19929;-73
2022/03/12 04:26:35;;;;;;;;;;;6.10;60.50;;;;;;4962044;28;19928;-73
2022/03/12 04:29:01;;;;;;;;;;;6.10;60.50;;;;;;4958793;28;20478;-73
2022/03/12 04:31:27;;;;;;;;;;;6.10;60.60;;;;;;4958295;28;20391;-73
2022/03/12 04:33:52;;;;;;;;;;;6.00;60.80;;;;;;4960992;28;20805;-73
2022/03/12 04:36:18;;;;;;;;;;;6.10;61.20;;;;;;4940153;28;19929;-73
2022/03/12 04:38:44;;;;;;;;;;;6.00;62.50;;;;;;4954750;28;19928;-73
2022/03/12 04:41:12;;;;;;;;;;;6.00;63.30;;;;;;4959078;28;20005;-73
2022/03/12 04:43:38;;;;;;;;;;;5.90;62.70;;;;;;4937236;28;19940;-73
2022/03/12 04:46:03;;;;;;;;;;;5.90;62.30;;;;;;4956811;28;19928;-73
2022/03/12 04:48:29;;;;;;;;;;;5.90;62.20;;;;;;4951447;28;20016;-73
2022/03/12 04:50:56;;;;;;;;;;;5.90;62.50;;;;;;4958123;28;19979;-73
2022/03/12 04:53:22;;;;;;;;;;;5.90;62.20;;;;;;4939569;28;20028;-73
2022/03/12 04:55:48;;;;;;;;;;;5.80;61.20;;;;;;4941370;28;19933;-73
2022/03/12 04:58:15;;;;;;;;;;;5.80;61.10;;;;;;4958929;28;20047;-73
2022/03/12 05:00:41;;;;;;;;;;;5.70;63.60;;;;;;4956902;28;19937;-73
2022/03/12 05:03:10;;;;;;;;;;;5.50;63.20;;;;;;4962186;28;20677;-73
2022/03/12 05:05:40;;;;;;;;;;;5.60;63.40;;;;;;4937770;28;21004;-74
2022/03/12 05:08:10;;;;;;;;;;;5.50;62.50;;;;;;4957050;28;20036;-74
2022/03/12 05:10:36;;;;;;;;;;;5.50;62.80;;;;;;4920323;28;20720;-73
2022/03/12 05:13:02;;;;;;;;;;;5.40;64.70;;;;;;4961358;28;20487;-73
2022/03/12 05:15:34;;;;;;;;;;;5.40;63.80;;;;;;4942468;28;20020;-73
2022/03/12 05:18:00;;;;;;;;;;;5.30;64.60;;;;;;4939616;28;20864;-73
2022/03/12 05:20:26;;;;;;;;;;;5.30;64.30;;;;;;4945182;28;19978;-74
2022/03/12 05:22:52;;;;;;;;;;;5.30;64.50;;;;;;4951030;28;19999;-73
2022/03/12 05:25:19;;;;;;;;;;;5.20;64.60;;;;;;4942148;28;19936;-73
2022/03/12 05:27:52;;;;;;;;;;;5.20;65.80;;;;;;4952116;28;20082;-74
2022/03/12 05:30:18;;;;;;;;;;;5.20;65.80;;;;;;4962134;28;20835;-74
2022/03/12 05:32:44;;;;;;;;;;;5.10;66.00;;;;;;4956927;28;20446;-73
2022/03/12 05:35:10;;;;;;;;;;;5.10;65.90;;;;;;4938217;28;20609;-73
2022/03/12 05:37:36;;;;;;;;;;;5.20;66.10;;;;;;4953408;28;19931;-74
2022/03/12 05:40:07;;;;;;;;;;;5.20;64.60;;;;;;4956357;28;20593;-73
2022/03/12 05:42:34;;;;;;;;;;;5.20;65.10;;;;;;4956378;28;19968;-73
2022/03/12 05:45:01;;;;;;;;;;;5.20;65.90;;;;;;4955701;28;20445;-73
2022/03/12 05:47:27;;;;;;;;;;;5.20;67.90;;;;;;4941583;28;19928;-73
2022/03/12 05:49:53;;;;;;;;;;;5.20;65.40;;;;;;4954551;28;19928;-74
2022/03/12 05:52:19;;;;;;;;;;;5.30;64.60;;;;;;4958750;28;19928;-73
2022/03/12 05:54:46;;;;;;;;;;;5.40;65.60;;;;;;4922248;28;20300;-73
2022/03/12 05:57:12;;;;;;;;;;;5.40;65.60;;;;;;4923474;28;19929;-73
2022/03/12 05:59:37;;;;;;;;;;;5.50;66.00;;;;;;4936349;28;20698;-74
2022/03/12 06:02:03;;;;;;;;;;;5.50;66.00;;;;;;4955493;28;19932;-74
2022/03/12 06:04:29;;;;;;;;;;;5.60;65.50;;;;;;4941186;28;20326;-74
2022/03/12 06:06:55;;;;;;;;;;;5.60;64.30;;;;;;4942668;28;20658;-74
2022/03/12 06:09:21;;;;;;;;;;;5.60;65.20;;;;;;4936853;28;19944;-74
2022/03/12 06:11:50;;;;;;;;;;;5.60;67.20;;;;;;4916514;28;20799;-74
2022/03/12 06:14:16;;;;;;;;;;;5.60;66.30;;;;;;4956365;28;20855;-73
2022/03/12 06:16:49;;;;;;;;;;;5.60;65.80;;;;;;4955920;28;19929;-74
2022/03/12 06:19:16;;;;;;;;;;;5.70;67.50;;;;;;4937545;28;20396;-74
2022/03/12 06:21:42;;;;;;;;;;;5.80;66.90;;;;;;4950200;28;20921;-74
2022/03/12 06:24:08;;;;;;;;;;;5.70;67.40;;;;;;4953990;28;19937;-74
2022/03/12 06:26:35;;;;;;;;;;;5.70;66.40;;;;;;4912277;28;20798;-74
2022/03/12 06:29:02;;;;;;;;;;;5.70;68.30;;;;;;4937300;28;20368;-73
2022/03/12 06:31:28;;;;;;;;;;;5.70;67.60;;;;;;4946102;28;20035;-74
2022/03/12 06:33:54;;;;;;;;;;;5.80;68.50;;;;;;4958645;28;20262;-74
2022/03/12 06:36:21;;;;;;;;;;;5.80;67.80;;;;;;4938648;28;20404;-73
2022/03/12 06:38:47;;;;;;;;;;;5.80;68.40;;;;;;4934002;28;20961;-73
2022/03/12 06:41:13;;;;;;;;;;;5.80;67.60;;;;;;4930939;28;19939;-74
2022/03/12 06:43:42;;;;;;;;;;;5.80;70.40;;;;;;4953353;28;19936;-74
2022/03/12 06:46:13;;;;;;;;;;;5.90;69.10;;;;;;4959029;28;19933;-73
2022/03/12 06:48:39;;;;;;;;;;;5.90;68.30;;;;;;4949967;28;19925;-74
2022/03/12 06:51:05;;;;;;;;;;;5.90;69.60;;;;;;4939970;28;20453;-74
2022/03/12 06:53:31;;;;;;;;;;;6.00;71.50;;;;;;4939776;28;19975;-73
2022/03/12 06:55:58;;;;;;;;;;;6.00;71.40;;;;;;4935621;28;19933;-73
2022/03/12 06:58:26;;;;;;;;;;;6.10;72.80;;;;;;4936681;28;19972;-73
2022/03/12 07:00:52;;;;;;;;;;;6.10;71.30;;;;;;4956100;28;20727;-73
2022/03/12 07:03:18;;;;;;;;;;;6.20;72.60;;;;;;4937380;28;20342;-74
2022/03/12 07:05:43;;;;;;;;;;;6.30;72.90;;;;;;4917563;28;21758;-74
2022/03/12 07:08:09;;;;;;;;;;;6.30;71.10;;;;;;4919076;28;19929;-72
2022/03/12 07:10:35;;;;;;;;;;;6.40;72.60;;;;;;4934651;28;20125;-73
2022/03/12 07:13:00;;;;;;;;;;;6.50;70.50;;;;;;4949912;28;19928;-73
2022/03/12 07:15:26;;;;;;;;;;;6.60;69.60;;;;;;4934556;28;20058;-73
2022/03/12 07:17:52;;;;;;;;;;;6.60;72.00;;;;;;4936978;28;20853;-73
2022/03/12 07:20:18;;;;;;;;;;;6.70;69.30;;;;;;4952244;28;19970;-73
2022/03/12 07:22:44;;;;;;;;;;;6.70;69.70;;;;;;4937285;28;20552;-74
2022/03/12 07:25:10;;;;;;;;;;;6.70;70.90;;;;;;4937408;28;19942;-72
2022/03/12 07:27:36;;;;;;;;;;;6.70;70.40;;;;;;4937733;28;19951;-73
2022/03/12 07:30:03;;;;;;;;;;;6.70;71.70;;;;;;4950443;28;19964;-73
2022/03/12 07:32:29;;;;;;;;;;;6.70;71.50;;;;;;4916952;28;20545;-74
2022/03/12 07:34:55;;;;;;;;;;;6.70;71.30;;;;;;4933862;28;20037;-73
2022/03/12 07:37:21;;;;;;;;;;;6.70;71.70;;;;;;4939939;28;20757;-73
2022/03/12 07:39:47;;;;;;;;;;;6.70;70.90;;;;;;4936657;28;19929;-74
2022/03/12 07:42:12;;;;;;;;;;;6.90;72.10;;;;;;4952892;28;19929;-74
2022/03/12 07:44:39;;;;;;;;;;;7.00;71.40;;;;;;4938099;28;20043;-74
2022/03/12 07:47:05;;;;;;;;;;;7.20;73.50;;;;;;4935101;28;20592;-73
2022/03/12 07:49:31;;;;;;;;;;;7.60;69.00;;;;;;4959224;28;20027;-74
2022/03/12 07:51:56;;;;;;;;;;;7.80;67.70;;;;;;4954617;28;19929;-74
2022/03/12 07:54:33;;;;;;;;;;;8.00;67.70;;;;;;4968056;28;20453;-74
2022/03/12 07:56:59;;;;;;;;;;;8.30;68.70;;;;;;4938836;28;20390;-73
2022/03/12 07:59:29;;;;;;;;;;;8.40;65.70;;;;;;4923269;28;20076;-73
2022/03/12 08:01:59;;;;;;;;;;;8.50;64.60;;;;;;4961807;28;19940;-74
2022/03/12 08:04:26;;;;;;;;;;;8.90;66.10;;;;;;4949224;28;19929;-74
2022/03/12 08:06:52;;;;;;;;;;;8.90;66.50;;;;;;4918808;28;19956;-73
2022/03/12 08:09:17;;;;;;;;;;;8.80;64.40;;;;;;4916834;28;20711;-73
2022/03/12 08:11:43;;;;;;;;;;;9.00;64.80;;;;;;4952245;28;20024;-74
2022/03/12 08:14:14;;;;;;;;;;;9.10;64.70;;;;;;4945748;28;19925;-73
2022/03/12 08:16:40;;;;;;;;;;;9.40;64.30;;;;;;4943342;28;19972;-74
2022/03/12 08:19:06;;;;;;;;;;;9.60;65.20;;;;;;4924793;28;19925;-74
2022/03/12 08:21:32;;;;;;;;;;;9.70;65.50;;;;;;4919023;28;20642;-74
2022/03/12 08:23:58;;;;;;;;;;;9.90;63.60;;;;;;4928873;28;19929;-74
2022/03/12 08:26:24;;;;;;;;;;;10.10;63.90;;;;;;4940086;28;20622;-73
2022/03/12 08:28:49;;;;;;;;;;;10.10;63.50;;;;;;4931635;28;20330;-73
2022/03/12 08:31:16;;;;;;;;;;;10.40;63.40;;;;;;4945116;28;20395;-73
2022/03/12 08:33:42;;;;;;;;;;;10.50;63.30;;;;;;4928348;28;19941;-73
2022/03/12 08:36:08;;;;;;;;;;;10.70;62.50;;;;;;4933296;28;20334;-74
2022/03/12 08:38:35;;;;;;;;;;;10.80;61.50;;;;;;4946202;28;19951;-74
2022/03/12 08:41:01;;;;;;;;;;;10.80;61.10;;;;;;4924456;28;20326;-73
2022/03/12 08:43:28;;;;;;;;;;;11.00;60.60;;;;;;4948318;28;19929;-74
2022/03/12 08:45:53;;;;;;;;;;;11.30;61.50;;;;;;4947358;28;19952;-74
2022/03/12 08:48:19;;;;;;;;;;;11.40;61.40;;;;;;4946790;28;19929;-74
2022/03/12 08:50:46;;;;;;;;;;;11.70;61.80;;;;;;4921938;28;20617;-74
2022/03/12 08:53:11;;;;;;;;;;;11.70;60.70;;;;;;4936073;28;19988;-73
2022/03/12 08:55:38;;;;;;;;;;;11.80;62.10;;;;;;4922602;28;20350;-74
2022/03/12 08:58:05;;;;;;;;;;;11.60;62.20;;;;;;4943283;28;20019;-73
2022/03/12 09:00:31;;;;;;;;;;;11.70;61.40;;;;;;4961857;28;19929;-73
2022/03/12 09:02:57;;;;;;;;;;;11.90;61.50;;;;;;4941222;28;19978;-74
2022/03/12 09:05:23;;;;;;;;;;;11.90;60.30;;;;;;4938371;28;20676;-74
2022/03/12 09:07:51;;;;;;;;;;;12.00;61.60;;;;;;4968996;28;19936;-74
2022/03/12 09:10:17;;;;;;;;;;;12.10;61.90;;;;;;4960654;28;19937;-74
2022/03/12 09:12:42;;;;;;;;;;;12.20;62.00;;;;;;4969630;28;19929;-74
2022/03/12 09:15:09;;;;;;;;;;;12.30;62.80;;;;;;4942714;28;20461;-73
2022/03/12 09:17:35;;;;;;;;;;;12.40;62.50;;;;;;4962637;28;20043;-73
2022/03/12 09:20:01;;;;;;;;;;;12.60;63.30;;;;;;4938399;28;19947;-73
2022/03/12 09:22:27;;;;;;;;;;;12.60;63.80;;;;;;4944757;28;20402;-73
2022/03/12 09:24:53;;;;;;;;;;;12.60;62.80;;;;;;4936365;28;20461;-74
2022/03/12 09:27:18;;;;;;;;;;;12.70;65.10;;;;;;4938552;28;20370;-74
2022/03/12 09:29:44;;;;;;;;;;;12.90;63.90;;;;;;4969929;28;19932;-74
2022/03/12 09:32:09;;;;;;;;;;;13.10;63.60;;;;;;4959100;28;20431;-74
2022/03/12 09:34:37;;;;;;;;;;;13.20;65.20;;;;;;4945576;28;20790;-75
2022/03/12 09:37:03;;;;;;;;;;;13.10;66.00;;;;;;4964390;28;20177;-74
2022/03/12 09:39:30;;;;;;;;;;;13.30;65.60;;;;;;4945799;28;19955;-73
2022/03/12 09:41:55;;;;;;;;;;;13.30;64.40;;;;;;4955273;28;20883;-74
2022/03/12 09:44:21;;;;;;;;;;;13.40;63.80;;;;;;4955406;28;19928;-74
2022/03/12 09:46:47;;;;;;;;;;;13.70;65.40;;;;;;4937073;28;19928;-74
2022/03/12 09:49:14;;;;;;;;;;;13.60;65.40;;;;;;4966408;28;20111;-74
2022/03/12 09:51:40;;;;;;;;;;;13.50;65.40;;;;;;4967985;28;19928;-74
2022/03/12 09:54:06;;;;;;;;;;;13.90;65.40;;;;;;4968941;28;20171;-74
2022/03/12 09:56:31;;;;;;;;;;;13.90;65.40;;;;;;4947967;28;19932;-74
2022/03/12 09:58:57;;;;;;;;;;;14.00;66.00;;;;;;4964619;28;19947;-73
2022/03/12 10:01:23;;;;;;;;;;;14.30;64.60;;;;;;4965999;28;19939;-74
2022/03/12 10:03:49;;;;;;;;;;;14.40;66.40;;;;;;4968519;28;19929;-73
2022/03/12 10:06:15;;;;;;;;;;;14.40;66.10;;;;;;4970490;28;19940;-74
2022/03/12 10:08:44;;;;;;;;;;;14.40;66.00;;;;;;4935921;28;19929;-75
2022/03/12 10:11:10;;;;;;;;;;;14.10;71.70;;;;;;4947965;28;21529;-76
2022/03/12 10:13:36;;;;;;;;;;;14.20;78.90;;;;;;4939954;28;19929;-74
2022/03/12 10:16:02;;;;;;;;;;;14.50;72.40;;;;;;4960617;28;20507;-75
2022/03/12 10:18:28;;;;;;;;;;;14.50;78.60;;;;;;4955713;28;19964;-75
2022/03/12 10:20:53;;;;;;;;;;;14.40;79.50;;;;;;4953751;28;20477;-75
2022/03/12 10:23:20;;;;;;;;;;;14.40;84.40;;;;;;4923061;28;19977;-74
2022/03/12 10:25:45;;;;;;;;;;;14.40;82.30;;;;;;4938364;28;19932;-75
2022/03/12 10:28:12;;;;;;;;;;;14.20;91.10;;;;;;4936093;28;19944;-75
2022/03/12 10:30:38;;;;;;;;;;;14.20;95.80;;;;;;4951499;28;20169;-75
2022/03/12 10:33:04;;;;;;;;;;;14.50;96.80;;;;;;4955507;28;20178;-75
2022/03/12 10:35:34;;;;;;;;;;;14.50;97.10;;;;;;4940220;28;20436;-76
2022/03/12 10:38:00;;;;;;;;;;;14.60;99.90;;;;;;4939690;28;20490;-76
2022/03/12 10:40:26;;;;;;;;;;;14.50;99.90;;;;;;4941125;28;20903;-76
2022/03/12 10:42:56;;;;;;;;;;;14.60;96.40;;;;;;4959236;28;19928;-76
2022/03/12 10:45:24;;;;;;;;;;;14.70;99.90;;;;;;4958636;28;19955;-75
2022/03/12 10:47:50;;;;;;;;;;;14.90;99.90;;;;;;4955489;28;20910;-75
2022/03/12 10:50:21;;;;;;;;;;;14.70;97.30;;;;;;4938937;28;20140;-75
2022/03/12 10:52:49;;;;;;;;;;;14.50;99.90;;;;;;4960850;28;20046;-75
2022/03/12 10:55:18;;;;;;;;;;;15.10;99.90;;;;;;4921493;28;20147;-76
2022/03/12 10:57:58;;;;;;;;;;;15.20;99.90;;;;;;4955387;28;19982;-75
2022/03/12 11:00:27;;;;;;;;;;;15.20;96.50;;;;;;4956966;28;19928;-74
2022/03/12 11:02:53;;;;;;;;;;;14.60;99.70;;;;;;4956444;28;20259;-75
2022/03/12 11:05:25;;;;;;;;;;;14.60;99.90;;;;;;4942100;28;20079;-75
2022/03/12 11:07:51;;;;;;;;;;;14.70;99.90;;;;;;4956093;28;20006;-75
2022/03/12 11:10:24;;;;;;;;;;;14.70;99.90;;;;;;4952776;28;20224;-74
2022/03/12 11:12:51;;;;;;;;;;;15.10;99.90;;;;;;4935877;28;20463;-76
2022/03/12 11:15:17;;;;;;;;;;;15.20;99.90;;;;;;4941175;28;20014;-76
2022/03/12 11:17:47;;;;;;;;;;;15.30;99.90;;;;;;4937108;28;19933;-76
2022/03/12 11:20:17;;;;;;;;;;;15.50;99.90;;;;;;4954801;28;20665;-76
2022/03/12 11:23:03;;;;;;;;;;;15.40;99.90;;;;;;4952446;28;20426;-76
2022/03/12 11:25:29;;;;;;;;;;;15.50;99.90;;;;;;4942127;28;20174;-76
2022/03/12 11:27:56;;;;;;;;;;;15.60;99.90;;;;;;4935215;28;20387;-76
2022/03/12 11:30:22;;;;;;;;;;;15.50;99.90;;;;;;4955928;28;19928;-75
2022/03/12 11:33:03;;;;;;;;;;;15.60;97.90;;;;;;4953120;28;20078;-75
2022/03/12 11:35:33;;;;;;;;;;;15.80;99.90;;;;;;4961245;28;19929;-75
2022/03/12 11:38:09;;;;;;;;;;;15.70;99.90;;;;;;4974269;28;19940;-75
2022/03/12 11:40:39;;;;;;;;;;;15.70;99.90;;;;;;4973156;28;19928;-73
2022/03/12 11:43:18;;;;;;;;;;;15.60;99.90;;;;;;4951600;28;19990;-73
2022/03/12 11:45:44;;;;;;;;;;;16.00;94.80;;;;;;4957596;28;20023;-73
2022/03/12 11:48:11;;;;;;;;;;;16.10;97.90;;;;;;4972523;28;20309;-74
2022/03/12 11:50:38;;;;;;;;;;;16.40;94.90;;;;;;4968314;28;19932;-74
2022/03/12 11:53:04;;;;;;;;;;;16.40;96.40;;;;;;4960233;28;19929;-75
2022/03/12 11:55:30;;;;;;;;;;;16.30;92.60;;;;;;4967601;28;20255;-75
2022/03/12 11:57:57;;;;;;;;;;;16.20;99.70;;;;;;4964747;28;19933;-76
2022/03/12 12:00:25;;;;;;;;;;;15.60;98.40;;;;;;4927727;28;19995;-75
2022/03/12 12:02:52;;;;;;;;;;;15.20;99.90;;;;;;4922923;28;20045;-74
2022/03/12 12:05:19;;;;;;;;;;;15.20;99.90;;;;;;4914999;28;20416;-74
2022/03/12 12:07:45;;;;;;;;;;;15.10;99.90;;;;;;4952652;28;19925;-75
2022/03/12 12:10:15;;;;;;;;;;;15.40;99.90;;;;;;4936677;28;20698;-76
2022/03/12 12:12:43;;;;;;;;;;;15.30;99.90;;;;;;4930051;28;20533;-75
2022/03/12 12:15:14;;;;;;;;;;;15.50;99.90;;;;;;4952778;28;20052;-75
2022/03/12 12:17:41;;;;;;;;;;;15.20;99.90;;;;;;4931756;28;20115;-74
2022/03/12 12:20:07;;;;;;;;;;;15.50;99.90;;;;;;4922223;28;19936;-74
2022/03/12 12:22:33;;;;;;;;;;;15.40;99.90;;;;;;4940295;28;19928;-73
2022/03/12 12:25:01;;;;;;;;;;;15.60;99.90;;;;;;4953082;28;19925;-74
2022/03/12 12:27:35;;;;;;;;;;;16.00;96.30;;;;;;4913174;28;20906;-74
2022/03/12 12:30:00;;;;;;;;;;;16.00;95.70;;;;;;4956829;28;19929;-74
2022/03/12 12:32:27;;;;;;;;;;;16.10;99.50;;;;;;4953920;28;20841;-75
2022/03/12 12:35:02;;;;;;;;;;;15.70;99.90;;;;;;4956198;28;19936;-75
2022/03/12 12:37:41;;;;;;;;;;;15.60;99.90;;;;;;4947725;28;20452;-75
2022/03/12 12:40:16;;;;;;;;;;;15.60;98.90;;;;;;4958679;28;20026;-75
2022/03/12 12:42:42;;;;;;;;;;;15.40;99.90;;;;;;4952410;28;20535;-75
2022/03/12 12:45:36;;;;;;;;;;;15.20;99.90;;;;;;4943536;28;19929;-76
2022/03/12 12:48:04;;;;;;;;;;;15.20;99.90;;;;;;4955894;28;20472;-74
2022/03/12 12:50:30;;;;;;;;;;;15.10;99.80;;;;;;4963892;28;19936;-76
2022/03/12 12:53:15;;;;;;;;;;;15.10;99.90;;;;;;4956416;28;20711;-76
2022/03/12 12:55:42;;;;;;;;;;;15.00;99.90;;;;;;4957389;28;19929;-75
2022/03/12 12:58:07;;;;;;;;;;;15.00;98.30;;;;;;4935446;28;20120;-76
2022/03/12 13:00:34;;;;;;;;;;;15.10;99.90;;;;;;4957275;28;19933;-75
2022/03/12 13:03:01;;;;;;;;;;;15.10;99.90;;;;;;4956340;28;19929;-76
2022/03/12 13:05:43;;;;;;;;;;;15.00;99.90;;;;;;4943023;28;19929;-75
2022/03/12 13:08:09;;;;;;;;;;;14.90;99.90;;;;;;4940370;28;20504;-75
2022/03/12 13:10:35;;;;;;;;;;;15.00;99.90;;;;;;4953066;28;20841;-75
2022/03/12 13:13:16;;;;;;;;;;;15.00;99.90;;;;;;4938621;28;19976;-75
2022/03/12 13:15:43;;;;;;;;;;;14.90;99.90;;;;;;4955461;28;19936;-75
2022/03/12 13:18:18;;;;;;;;;;;14.90;99.90;;;;;;4940786;28;20006;-75
2022/03/12 13:20:44;;;;;;;;;;;14.90;99.90;;;;;;4956250;28;20356;-75
2022/03/12 13:23:10;;;;;;;;;;;14.80;99.90;;;;;;4955889;28;20672;-75
2022/03/12 13:25:47;;;;;;;;;;;15.10;99.90;;;;;;4955551;28;20104;-75
2022/03/12 13:28:15;;;;;;;;;;;15.50;99.90;;;;;;4958556;28;20810;-75
2022/03/12 13:30:41;;;;;;;;;;;15.50;93.70;;;;;;4937021;28;20338;-75
2022/03/12 13:33:08;;;;;;;;;;;15.60;98.20;;;;;;4956085;28;20795;-75
2022/03/12 13:35:34;;;;;;;;;;;15.50;92.00;;;;;;4922143;28;20023;-75
2022/03/12 13:38:00;;;;;;;;;;;15.30;92.50;;;;;;4956664;28;19933;-75
2022/03/12 13:40:28;;;;;;;;;;;15.30;98.40;;;;;;4954380;28;19940;-75
2022/03/12 13:42:58;;;;;;;;;;;15.50;99.90;;;;;;4937094;28;19935;-75
2022/03/12 13:45:24;;;;;;;;;;;15.50;98.40;;;;;;4937117;28;19929;-75
2022/03/12 13:47:51;;;;;;;;;;;15.30;97.00;;;;;;4956953;28;20381;-75
2022/03/12 13:50:17;;;;;;;;;;;15.50;96.30;;;;;;4955850;28;20511;-75
2022/03/12 13:52:42;;;;;;;;;;;15.80;93.40;;;;;;4957296;28;19932;-75
2022/03/12 13:55:09;;;;;;;;;;;15.80;92.80;;;;;;4958104;28;19932;-76
2022/03/12 13:57:40;;;;;;;;;;;16.10;89.90;;;;;;4951474;28;20102;-75
2022/03/12 14:00:07;;;;;;;;;;;16.20;85.80;;;;;;4935233;28;20721;-75
2022/03/12 14:02:34;;;;;;;;;;;15.90;91.60;;;;;;4915353;28;19972;-75
2022/03/12 14:05:00;;;;;;;;;;;15.70;92.60;;;;;;4950182;28;20561;-75
2022/03/12 14:07:26;;;;;;;;;;;15.40;93.70;;;;;;4954626;28;19933;-75
2022/03/12 14:09:52;;;;;;;;;;;15.60;92.70;;;;;;4935725;28;19975;-75
2022/03/12 14:12:25;;;;;;;;;;;15.60;93.90;;;;;;4932042;28;19935;-75
2022/03/12 14:14:51;;;;;;;;;;;15.70;93.10;;;;;;4912813;28;19929;-75
2022/03/12 14:17:26;;;;;;;;;;;15.70;92.40;;;;;;4916818;28;20045;-75
2022/03/12 14:20:00;;;;;;;;;;;15.80;95.10;;;;;;4957021;28;20052;-74
2022/03/12 14:22:28;;;;;;;;;;;15.80;93.50;;;;;;4950026;28;19929;-74
2022/03/12 14:24:54;;;;;;;;;;;15.90;94.80;;;;;;4984613;28;20048;-75